createdAt,value
2018-02-27T00:02:26.875Z,99.90
2018-02-27T00:04:55.536Z,99.90
2018-02-27T00:07:24.168Z,99.90
2018-02-27T00:09:53.380Z,99.90
2018-02-27T00:12:22.061Z,99.90
2018-02-27T00:14:50.729Z,99.90
2018-02-27T00:17:20.156Z,99.90
2018-02-27T00:19:48.794Z,99.90
2018-02-27T00:22:17.258Z,99.90
2018-02-27T00:24:45.919Z,99.90
2018-02-27T00:27:14.564Z,99.90
2018-02-27T00:29:44.004Z,99.90
2018-02-27T00:32:12.755Z,99.90
2018-02-27T00:34:42.161Z,99.90
2018-02-27T00:37:11.597Z,99.90
2018-02-27T00:39:40.242Z,99.90
2018-02-27T00:42:09.678Z,99.90
2018-02-27T00:44:38.310Z,99.90
2018-02-27T00:47:06.955Z,99.90
2018-02-27T00:49:35.631Z,99.90
2018-02-27T00:52:04.270Z,99.90
2018-02-27T00:54:33.713Z,99.90
2018-02-27T00:57:02.349Z,99.90
2018-02-27T00:59:31.001Z,99.90
2018-02-27T01:01:59.640Z,99.90
2018-02-27T01:04:29.051Z,99.90
2018-02-27T01:06:59.419Z,99.90
2018-02-27T01:09:28.059Z,99.90
2018-02-27T01:11:57.465Z,99.90
2018-02-27T01:14:26.878Z,99.90
2018-02-27T01:16:55.539Z,99.90
2018-02-27T01:19:24.959Z,99.90
2018-02-27T01:21:53.730Z,99.90
2018-02-27T01:24:23.140Z,99.90
2018-02-27T01:26:52.560Z,99.90
2018-02-27T01:29:21.208Z,99.90
2018-02-27T01:31:49.880Z,99.90
2018-02-27T01:34:18.600Z,99.90
2018-02-27T01:36:48.021Z,99.90
2018-02-27T01:39:16.668Z,99.90
2018-02-27T01:41:46.084Z,99.90
2018-02-27T01:44:15.513Z,99.90
2018-02-27T01:46:44.179Z,99.90
2018-02-27T01:49:12.835Z,99.90
2018-02-27T01:51:41.481Z,99.90
2018-02-27T01:54:10.148Z,99.90
2018-02-27T01:56:38.845Z,99.90
2018-02-27T01:59:07.499Z,99.90
2018-02-27T02:01:36.919Z,99.90
2018-02-27T02:04:05.228Z,99.90
2018-02-27T02:06:33.531Z,99.90
2018-02-27T02:09:02.194Z,99.90
2018-02-27T02:11:30.824Z,99.90
2018-02-27T02:14:00.318Z,99.90
2018-02-27T02:16:28.985Z,99.90
2018-02-27T02:18:57.617Z,99.90
2018-02-27T02:21:26.381Z,99.90
2018-02-27T02:23:55.798Z,99.90
2018-02-27T02:26:25.200Z,99.90
2018-02-27T02:28:53.849Z,99.90
2018-02-27T02:31:22.467Z,99.90
2018-02-27T02:33:52.625Z,99.90
2018-02-27T02:36:21.263Z,99.90
2018-02-27T02:38:50.664Z,99.90
2018-02-27T02:41:20.084Z,99.90
2018-02-27T02:43:48.727Z,99.90
2018-02-27T02:46:17.381Z,99.90
2018-02-27T02:48:46.017Z,99.90
2018-02-27T02:51:15.443Z,99.90
2018-02-27T02:53:44.074Z,99.90
2018-02-27T02:56:12.737Z,99.90
2018-02-27T02:58:41.372Z,99.90
2018-02-27T03:01:10.783Z,99.90
2018-02-27T03:03:40.201Z,99.90
2018-02-27T03:06:08.829Z,99.90
2018-02-27T03:08:37.498Z,99.90
2018-02-27T03:11:06.232Z,99.90
2018-02-27T03:13:35.698Z,99.90
2018-02-27T03:16:04.365Z,99.90
2018-02-27T03:18:33.011Z,99.90
2018-02-27T03:21:02.413Z,99.90
2018-02-27T03:23:31.822Z,99.90
2018-02-27T03:26:00.470Z,99.90
2018-02-27T03:28:29.112Z,99.90
2018-02-27T03:30:57.778Z,99.90
2018-02-27T03:33:26.418Z,99.90
2018-02-27T03:35:55.095Z,99.90
2018-02-27T03:38:23.751Z,99.90
2018-02-27T03:40:52.409Z,99.90
2018-02-27T03:43:21.826Z,99.90
2018-02-27T03:45:50.464Z,99.90
2018-02-27T03:48:19.118Z,99.90
2018-02-27T03:50:47.752Z,99.90
2018-02-27T03:53:17.161Z,99.90
2018-02-27T03:55:45.864Z,99.90
2018-02-27T03:58:14.503Z,99.90
2018-02-27T04:00:43.166Z,99.90
2018-02-27T04:03:11.832Z,99.90
2018-02-27T04:05:40.472Z,99.90
2018-02-27T04:08:09.144Z,99.90
2018-02-27T04:10:37.777Z,99.90
2018-02-27T04:13:06.411Z,99.90
2018-02-27T04:15:35.025Z,99.90
2018-02-27T04:18:04.417Z,99.90
2018-02-27T04:20:33.813Z,99.90
2018-02-27T04:23:02.439Z,99.90
2018-02-27T04:25:31.075Z,99.90
2018-02-27T04:27:59.685Z,99.90
2018-02-27T04:30:29.100Z,99.90
2018-02-27T04:32:57.651Z,99.90
2018-02-27T04:35:26.277Z,99.90
2018-02-27T04:37:54.907Z,99.90
2018-02-27T04:40:23.575Z,99.90
2018-02-27T04:42:52.211Z,99.90
2018-02-27T04:45:20.856Z,99.90
2018-02-27T04:47:49.519Z,99.90
2018-02-27T04:50:18.156Z,99.90
2018-02-27T04:52:47.768Z,99.90
2018-02-27T04:55:16.413Z,99.90
2018-02-27T04:57:45.095Z,99.90
2018-02-27T05:00:13.724Z,99.90
2018-02-27T05:02:42.376Z,99.90
2018-02-27T05:05:11.021Z,99.90
2018-02-27T05:07:39.712Z,99.90
2018-02-27T05:10:08.353Z,99.90
2018-02-27T05:12:37.857Z,99.90
2018-02-27T05:15:07.266Z,99.90
2018-02-27T05:17:36.682Z,99.90
2018-02-27T05:20:05.334Z,99.90
2018-02-27T05:22:33.964Z,99.90
2018-02-27T05:25:02.715Z,99.90
2018-02-27T05:27:33.190Z,99.90
2018-02-27T05:30:01.828Z,99.90
2018-02-27T05:32:31.291Z,99.90
2018-02-27T05:35:00.005Z,99.90
2018-02-27T05:37:29.431Z,99.90
2018-02-27T05:39:58.125Z,99.90
2018-02-27T05:42:26.772Z,99.90
2018-02-27T05:44:55.992Z,99.90
2018-02-27T05:47:24.714Z,99.90
2018-02-27T05:49:54.159Z,99.90
2018-02-27T05:52:22.849Z,99.90
2018-02-27T05:54:51.506Z,99.90
2018-02-27T05:57:20.136Z,99.90
2018-02-27T05:59:49.545Z,99.90
2018-02-27T06:02:18.971Z,99.90
2018-02-27T06:04:47.630Z,99.90
2018-02-27T06:07:17.060Z,99.90
2018-02-27T06:09:45.765Z,99.90
2018-02-27T06:12:14.438Z,99.90
2018-02-27T06:14:43.079Z,99.90
2018-02-27T06:17:11.737Z,99.90
2018-02-27T06:19:40.395Z,99.90
2018-02-27T06:22:09.034Z,99.90
2018-02-27T06:24:38.508Z,99.90
2018-02-27T06:27:07.139Z,99.90
2018-02-27T06:29:35.815Z,99.90
2018-02-27T06:32:04.487Z,99.90
2018-02-27T06:34:33.900Z,99.90
2018-02-27T06:37:03.327Z,99.90
2018-02-27T06:39:31.992Z,99.90
2018-02-27T06:42:01.408Z,99.90
2018-02-27T06:44:30.036Z,99.90
2018-02-27T06:46:58.734Z,99.90
2018-02-27T06:49:27.497Z,99.90
2018-02-27T06:51:56.173Z,99.90
2018-02-27T06:54:24.840Z,99.90
2018-02-27T06:56:53.496Z,99.90
2018-02-27T06:59:22.178Z,99.90
2018-02-27T07:01:51.580Z,99.90
2018-02-27T07:04:21.008Z,99.90
2018-02-27T07:06:49.733Z,99.90
2018-02-27T07:09:18.208Z,99.90
2018-02-27T07:11:46.879Z,99.90
2018-02-27T07:14:15.561Z,99.90
2018-02-27T07:16:44.199Z,99.90
2018-02-27T07:19:12.844Z,99.90
2018-02-27T07:21:41.499Z,99.90
2018-02-27T07:24:10.243Z,99.90
2018-02-27T07:26:38.921Z,99.90
2018-02-27T07:29:07.585Z,99.90
2018-02-27T07:31:36.259Z,99.90
2018-02-27T07:34:04.908Z,99.90
2018-02-27T07:36:33.548Z,99.90
2018-02-27T07:39:02.209Z,99.90
2018-02-27T07:41:30.953Z,99.90
2018-02-27T07:44:00.403Z,99.90
2018-02-27T07:46:29.050Z,99.90
2018-02-27T07:48:57.696Z,99.90
2018-02-27T07:51:26.358Z,99.90
2018-02-27T07:53:54.991Z,99.90
2018-02-27T07:56:23.673Z,99.90
2018-02-27T07:58:53.089Z,99.90
2018-02-27T08:01:22.498Z,99.90
2018-02-27T08:03:51.156Z,99.90
2018-02-27T08:06:20.680Z,99.90
2018-02-27T08:08:50.100Z,99.90
2018-02-27T08:11:18.733Z,99.90
2018-02-27T08:13:47.397Z,99.90
2018-02-27T08:16:16.236Z,99.90
2018-02-27T08:18:45.655Z,99.90
2018-02-27T08:21:13.984Z,99.90
2018-02-27T08:23:42.617Z,99.90
2018-02-27T08:26:11.265Z,99.90
2018-02-27T08:28:39.941Z,99.90
2018-02-27T08:31:08.398Z,99.90
2018-02-27T08:33:37.060Z,99.90
2018-02-27T08:36:05.705Z,99.90
2018-02-27T08:38:37.600Z,99.90
2018-02-27T08:41:06.287Z,99.90
2018-02-27T08:43:35.684Z,99.90
2018-02-27T08:46:05.112Z,99.90
2018-02-27T08:48:33.752Z,99.90
2018-02-27T08:51:03.336Z,99.90
2018-02-27T08:53:32.812Z,99.90
2018-02-27T08:56:01.488Z,99.90
2018-02-27T08:58:30.148Z,99.90
2018-02-27T09:00:59.662Z,99.90
2018-02-27T09:03:29.115Z,99.90
2018-02-27T09:05:57.783Z,99.90
2018-02-27T09:08:26.422Z,99.90
2018-02-27T09:10:55.847Z,99.90
2018-02-27T09:13:24.484Z,99.90
2018-02-27T09:15:53.127Z,99.90
2018-02-27T09:18:21.830Z,99.90
2018-02-27T09:20:50.475Z,99.90
2018-02-27T09:23:19.187Z,99.90
2018-02-27T09:25:47.827Z,99.90
2018-02-27T09:28:17.236Z,99.90
2018-02-27T09:30:46.659Z,99.90
2018-02-27T09:33:15.293Z,99.90
2018-02-27T09:35:43.980Z,99.90
2018-02-27T09:38:12.612Z,99.90
2018-02-27T09:40:42.106Z,99.90
2018-02-27T09:43:10.909Z,99.90
2018-02-27T09:45:39.548Z,99.90
2018-02-27T09:48:08.266Z,99.90
2018-02-27T09:50:37.662Z,99.90
2018-02-27T09:53:06.392Z,99.90
2018-02-27T09:55:35.064Z,99.90
2018-02-27T09:58:03.729Z,99.90
2018-02-27T10:00:32.547Z,99.90
2018-02-27T10:03:01.277Z,98.60
2018-02-27T10:05:29.979Z,96.50
2018-02-27T10:07:58.636Z,95.40
2018-02-27T10:10:27.277Z,97.10
2018-02-27T10:12:56.022Z,96.80
2018-02-27T10:15:24.702Z,95.80
2018-02-27T10:17:53.328Z,95.30
2018-02-27T10:20:22.059Z,93.50
2018-02-27T10:22:50.689Z,95.10
2018-02-27T10:25:19.351Z,95.80
2018-02-27T10:27:48.747Z,95.60
2018-02-27T10:30:18.171Z,95.30
2018-02-27T10:32:46.832Z,95.30
2018-02-27T10:35:15.456Z,95.70
2018-02-27T10:37:44.110Z,95.30
2018-02-27T10:40:13.520Z,95.20
2018-02-27T10:42:42.160Z,95.20
2018-02-27T10:45:10.811Z,93.40
2018-02-27T10:47:39.469Z,93.80
2018-02-27T10:50:08.896Z,91.30
2018-02-27T10:52:37.340Z,91.30
2018-02-27T10:55:06.754Z,90.80
2018-02-27T10:57:36.169Z,90.80
2018-02-27T11:00:04.145Z,90.70
2018-02-27T11:02:32.788Z,90.30
2018-02-27T11:05:01.608Z,89.50
2018-02-27T11:07:30.320Z,90.00
2018-02-27T11:09:58.948Z,87.00
2018-02-27T11:12:27.612Z,84.60
2018-02-27T11:14:56.276Z,84.80
2018-02-27T11:17:24.909Z,85.20
2018-02-27T11:19:53.580Z,85.20
2018-02-27T11:22:22.231Z,83.50
2018-02-27T11:24:50.864Z,83.70
2018-02-27T11:27:19.338Z,79.90
2018-02-27T11:29:47.992Z,78.00
2018-02-27T11:32:16.662Z,78.70
2018-02-27T11:34:45.294Z,78.40
2018-02-27T11:37:14.713Z,73.10
2018-02-27T11:39:44.200Z,75.30
2018-02-27T11:42:12.828Z,75.40
2018-02-27T11:44:41.489Z,75.50
2018-02-27T11:47:10.888Z,76.90
2018-02-27T11:49:40.288Z,77.60
2018-02-27T11:52:09.707Z,75.60
2018-02-27T11:54:38.366Z,75.40
2018-02-27T11:57:07.808Z,75.40
2018-02-27T11:59:36.431Z,75.30
2018-02-27T12:02:05.064Z,74.60
2018-02-27T12:04:33.723Z,74.90
2018-02-27T12:07:03.117Z,75.30
2018-02-27T12:09:31.773Z,75.20
2018-02-27T12:12:00.427Z,77.20
2018-02-27T12:14:29.071Z,74.20
2018-02-27T12:16:57.722Z,69.00
2018-02-27T12:19:26.364Z,66.10
2018-02-27T12:21:55.072Z,62.10
2018-02-27T12:24:23.716Z,62.80
2018-02-27T12:26:53.172Z,66.40
2018-02-27T12:29:21.813Z,66.10
2018-02-27T12:31:51.216Z,64.50
2018-02-27T12:34:20.644Z,62.90
2018-02-27T12:36:49.288Z,62.90
2018-02-27T12:39:18.794Z,61.00
2018-02-27T12:41:48.206Z,64.50
2018-02-27T12:44:17.631Z,59.70
2018-02-27T12:46:46.370Z,59.60
2018-02-27T12:49:15.049Z,61.50
2018-02-27T12:51:43.693Z,59.40
2018-02-27T12:54:12.345Z,58.30
2018-02-27T12:56:41.004Z,58.20
2018-02-27T12:59:09.652Z,60.30
2018-02-27T13:01:38.304Z,58.50
2018-02-27T13:04:07.716Z,54.20
2018-02-27T13:06:37.130Z,54.30
2018-02-27T13:09:06.744Z,55.50
2018-02-27T13:11:35.406Z,55.50
2018-02-27T13:14:04.801Z,56.50
2018-02-27T13:16:33.476Z,56.50
2018-02-27T13:19:02.928Z,51.40
2018-02-27T13:21:31.703Z,51.40
2018-02-27T13:24:00.379Z,53.30
2018-02-27T13:26:29.875Z,51.80
2018-02-27T13:28:59.331Z,52.80
2018-02-27T13:31:27.993Z,52.80
2018-02-27T13:33:56.708Z,52.80
2018-02-27T13:36:25.384Z,53.20
2018-02-27T13:38:54.027Z,53.20
2018-02-27T13:41:22.660Z,51.80
2018-02-27T13:43:51.300Z,53.30
2018-02-27T13:46:20.004Z,51.70
2018-02-27T13:48:48.661Z,52.10
2018-02-27T13:51:17.341Z,53.40
2018-02-27T13:53:46.746Z,51.80
2018-02-27T13:56:16.178Z,51.30
2018-02-27T13:58:44.807Z,51.30
2018-02-27T14:01:13.474Z,53.00
2018-02-27T14:03:42.108Z,53.30
2018-02-27T14:06:10.752Z,55.00
2018-02-27T14:08:39.401Z,51.00
2018-02-27T14:11:08.031Z,48.70
2018-02-27T14:13:36.690Z,50.50
2018-02-27T14:16:05.330Z,51.40
2018-02-27T14:18:34.724Z,52.70
2018-02-27T14:21:04.132Z,53.30
2018-02-27T14:23:32.776Z,53.30
2018-02-27T14:26:02.465Z,53.80
2018-02-27T14:28:31.126Z,53.80
2018-02-27T14:30:59.762Z,56.30
2018-02-27T14:33:28.405Z,54.60
2018-02-27T14:35:57.156Z,56.40
2018-02-27T14:38:26.605Z,56.10
2018-02-27T14:40:55.253Z,56.10
2018-02-27T14:43:24.025Z,56.00
2018-02-27T14:45:52.680Z,56.20
2018-02-27T14:48:21.337Z,57.10
2018-02-27T14:50:50.004Z,57.50
2018-02-27T14:53:18.642Z,55.60
2018-02-27T14:55:47.290Z,57.00
2018-02-27T14:58:15.963Z,57.50
2018-02-27T15:00:44.720Z,57.00
2018-02-27T15:03:14.852Z,58.70
2018-02-27T15:05:44.282Z,57.80
2018-02-27T15:08:12.932Z,57.80
2018-02-27T15:10:42.345Z,56.90
2018-02-27T15:13:10.992Z,56.80
2018-02-27T15:15:39.303Z,57.70
2018-02-27T15:18:08.707Z,58.70
2018-02-27T15:20:37.352Z,58.70
2018-02-27T15:23:06.003Z,59.70
2018-02-27T15:25:34.700Z,57.80
2018-02-27T15:28:03.348Z,56.90
2018-02-27T15:30:32.022Z,58.40
2018-02-27T15:33:01.425Z,57.00
2018-02-27T15:35:30.847Z,57.70
2018-02-27T15:37:59.471Z,57.70
2018-02-27T15:40:28.120Z,58.50
2018-02-27T15:42:56.752Z,59.90
2018-02-27T15:45:25.400Z,59.30
2018-02-27T15:47:54.037Z,60.90
2018-02-27T15:50:22.696Z,60.00
2018-02-27T15:52:51.369Z,60.00
2018-02-27T15:55:20.085Z,61.70
2018-02-27T15:57:48.816Z,59.80
2018-02-27T16:00:17.452Z,58.90
2018-02-27T16:02:46.135Z,60.10
2018-02-27T16:05:14.941Z,60.70
2018-02-27T16:07:43.586Z,60.60
2018-02-27T16:10:12.410Z,61.30
2018-02-27T16:12:41.832Z,63.20
2018-02-27T16:15:10.511Z,63.10
2018-02-27T16:17:40.050Z,63.10
2018-02-27T16:20:08.708Z,63.00
2018-02-27T16:22:38.157Z,64.70
2018-02-27T16:25:06.809Z,64.70
2018-02-27T16:27:35.500Z,65.50
2018-02-27T16:30:03.812Z,65.00
2018-02-27T16:32:32.485Z,65.00
2018-02-27T16:35:01.168Z,66.40
2018-02-27T16:37:29.819Z,65.30
2018-02-27T16:39:59.217Z,66.50
2018-02-27T16:42:28.654Z,66.10
2018-02-27T16:44:57.325Z,66.10
2018-02-27T16:47:25.980Z,67.40
2018-02-27T16:49:55.400Z,68.30
2018-02-27T16:52:24.135Z,68.30
2018-02-27T16:54:53.739Z,71.00
2018-02-27T16:57:22.514Z,70.30
2018-02-27T16:59:51.177Z,71.90
2018-02-27T17:02:19.830Z,72.60
2018-02-27T17:04:48.468Z,73.60
2018-02-27T17:07:17.115Z,75.00
2018-02-27T17:09:45.766Z,75.50
2018-02-27T17:12:14.478Z,77.00
2018-02-27T17:14:43.248Z,78.60
2018-02-27T17:17:11.908Z,79.70
2018-02-27T17:19:40.539Z,80.70
2018-02-27T17:22:09.961Z,83.10
2018-02-27T17:24:38.593Z,83.10
2018-02-27T17:27:07.260Z,82.70
2018-02-27T17:29:35.912Z,83.10
2018-02-27T17:32:04.600Z,84.10
2018-02-27T17:34:33.254Z,85.00
2018-02-27T17:37:04.632Z,85.60
2018-02-27T17:39:33.276Z,85.80
2018-02-27T17:42:01.923Z,87.80
2018-02-27T17:44:30.557Z,88.40
2018-02-27T17:47:00.680Z,89.40
2018-02-27T17:49:30.073Z,89.80
2018-02-27T17:51:58.833Z,89.70
2018-02-27T17:54:27.468Z,90.20
2018-02-27T17:56:56.184Z,90.70
2018-02-27T17:59:24.951Z,91.00
2018-02-27T18:01:54.527Z,91.30
2018-02-27T18:04:23.221Z,91.80
2018-02-27T18:06:52.002Z,92.60
2018-02-27T18:09:21.427Z,95.20
2018-02-27T18:11:50.092Z,95.20
2018-02-27T18:14:18.976Z,96.70
2018-02-27T18:16:48.396Z,99.10
2018-02-27T18:19:17.804Z,99.90
2018-02-27T18:21:46.427Z,99.90
2018-02-27T18:24:15.068Z,99.90
2018-02-27T18:26:43.706Z,99.90
2018-02-27T18:29:12.364Z,99.90
2018-02-27T18:31:41.004Z,99.90
2018-02-27T18:34:10.222Z,99.90
2018-02-27T18:36:38.866Z,99.90
2018-02-27T18:39:07.512Z,99.90
2018-02-27T18:41:36.160Z,99.90
2018-02-27T18:44:05.649Z,99.90
2018-02-27T18:46:34.400Z,99.90
2018-02-27T18:49:03.172Z,99.90
2018-02-27T18:51:31.825Z,99.90
2018-02-27T18:54:01.241Z,99.90
2018-02-27T18:56:29.915Z,99.90
2018-02-27T18:58:59.328Z,99.90
2018-02-27T19:01:28.430Z,99.90
2018-02-27T19:03:57.124Z,99.90
2018-02-27T19:06:25.805Z,99.90
2018-02-27T19:08:54.444Z,99.90
2018-02-27T19:11:23.123Z,99.90
2018-02-27T19:13:52.067Z,99.90
2018-02-27T19:16:20.822Z,99.90
2018-02-27T19:18:50.222Z,99.90
2018-02-27T19:21:20.227Z,99.90
2018-02-27T19:23:49.648Z,99.90
2018-02-27T19:26:19.101Z,99.90
2018-02-27T19:28:47.929Z,99.90
2018-02-27T19:31:16.573Z,99.90
2018-02-27T19:33:45.306Z,99.90
2018-02-27T19:36:14.763Z,99.90
2018-02-27T19:38:43.409Z,99.90
2018-02-27T19:41:12.061Z,99.90
2018-02-27T19:43:40.784Z,99.90
2018-02-27T19:46:09.425Z,99.90
2018-02-27T19:48:38.099Z,99.90
2018-02-27T19:51:07.505Z,99.90
2018-02-27T19:53:36.151Z,99.90
2018-02-27T19:56:04.806Z,99.90
2018-02-27T19:58:33.502Z,99.90
2018-02-27T20:01:02.330Z,99.90
2018-02-27T20:03:30.976Z,99.90
2018-02-27T20:06:00.379Z,99.90
2018-02-27T20:08:29.797Z,99.90
2018-02-27T20:10:58.461Z,99.90
2018-02-27T20:13:27.319Z,99.90
2018-02-27T20:15:55.973Z,99.90
2018-02-27T20:18:25.435Z,99.90
2018-02-27T20:20:54.860Z,99.90
2018-02-27T20:23:28.986Z,99.90
2018-02-27T20:25:57.608Z,99.90
2018-02-27T20:28:31.698Z,99.90
2018-02-27T20:31:00.328Z,99.90
2018-02-27T20:33:29.775Z,99.90
2018-02-27T20:35:58.422Z,99.90
2018-02-27T20:38:33.227Z,99.90
2018-02-27T20:41:01.892Z,99.90
2018-02-27T20:43:30.544Z,99.90
2018-02-27T20:45:59.199Z,99.90
2018-02-27T20:48:28.607Z,99.90
2018-02-27T20:50:58.042Z,99.90
2018-02-27T20:53:26.738Z,99.90
2018-02-27T20:55:55.377Z,99.90
2018-02-27T20:58:24.023Z,99.90
2018-02-27T21:00:52.685Z,99.90
2018-02-27T21:03:21.378Z,99.90
2018-02-27T21:05:50.017Z,99.90
2018-02-27T21:08:19.479Z,99.90
2018-02-27T21:10:48.298Z,99.90
2018-02-27T21:13:17.725Z,99.90
2018-02-27T21:15:47.125Z,99.90
2018-02-27T21:18:15.806Z,99.90
2018-02-27T21:20:44.616Z,99.90
2018-02-27T21:23:13.391Z,99.90
2018-02-27T21:25:42.060Z,99.90
2018-02-27T21:28:11.455Z,99.90
2018-02-27T21:30:40.918Z,99.90
2018-02-27T21:33:09.619Z,99.90
2018-02-27T21:35:38.267Z,99.90
2018-02-27T21:38:06.908Z,99.90
2018-02-27T21:40:35.533Z,99.90
2018-02-27T21:43:04.213Z,99.90
2018-02-27T21:45:32.837Z,99.90
2018-02-27T21:48:01.505Z,99.90
2018-02-27T21:50:30.422Z,99.90
2018-02-27T21:52:59.056Z,99.90
2018-02-27T21:55:27.799Z,99.90
2018-02-27T21:57:56.571Z,99.90
2018-02-27T22:00:25.216Z,99.90
2018-02-27T22:02:53.844Z,99.90
2018-02-27T22:05:22.499Z,99.90
2018-02-27T22:07:51.177Z,99.90
2018-02-27T22:10:19.832Z,99.90
2018-02-27T22:12:49.243Z,99.90
2018-02-27T22:15:18.635Z,99.90
2018-02-27T22:17:48.053Z,99.90
2018-02-27T22:20:16.684Z,99.90
2018-02-27T22:22:45.374Z,99.90
2018-02-27T22:25:14.053Z,99.90
2018-02-27T22:27:42.893Z,99.90
2018-02-27T22:30:11.749Z,99.90
2018-02-27T22:32:40.424Z,99.90
2018-02-27T22:35:09.110Z,99.90
2018-02-27T22:37:37.742Z,99.90
2018-02-27T22:40:06.397Z,99.90
2018-02-27T22:42:35.810Z,99.90
2018-02-27T22:45:04.117Z,99.90
2018-02-27T22:47:32.763Z,99.90
2018-02-27T22:50:02.171Z,99.90
2018-02-27T22:52:31.581Z,99.90
2018-02-27T22:55:00.226Z,99.90
2018-02-27T22:57:28.865Z,99.90
2018-02-27T22:59:57.527Z,99.90
2018-02-27T23:02:26.968Z,99.90
2018-02-27T23:04:55.618Z,99.90
2018-02-27T23:07:25.292Z,99.90
2018-02-27T23:09:53.927Z,99.90
2018-02-27T23:12:22.388Z,99.90
2018-02-27T23:14:51.817Z,99.90
2018-02-27T23:17:20.442Z,99.90
2018-02-27T23:19:49.082Z,99.90
2018-02-27T23:22:17.741Z,99.90
2018-02-27T23:25:15.879Z,99.90
2018-02-27T23:27:45.179Z,99.90
2018-02-27T23:30:13.979Z,99.90
2018-02-27T23:32:43.535Z,99.90
2018-02-27T23:35:18.648Z,99.90
2018-02-27T23:37:48.070Z,99.90
2018-02-27T23:40:16.700Z,99.90
2018-02-27T23:42:45.377Z,99.90
2018-02-27T23:45:13.720Z,99.90
2018-02-27T23:47:42.349Z,99.90
2018-02-27T23:50:11.000Z,99.90
2018-02-27T23:52:39.637Z,99.90
2018-02-27T23:55:08.368Z,99.90
2018-02-27T23:57:37.006Z,99.90
